SCC: VIR: GS practice two times

Pos Num Class Team Time Gap To 1st Speed --- --- ----- ------------------------------ ---------- ------- ------- ------- 1. 49 GS Marcus Motorsports 2:05.057 94.133 2. ...

Pos Num Class Team                                 Time     Gap  To 1st   Speed
--- --- ----- ------------------------------ ---------- ------- ------- -------
 1.  49 GS    Marcus Motorsports               2:05.057                  94.133
 2.  91 GS    Automatic Racing                 2:05.632   0.575   0.575  93.702
 3.  55 GS    Hyper Sport                      2:05.905   0.273   0.848  93.499
 4.  09 GS    Automatic Racing                 2:06.021   0.116   0.964  93.413
 5.   5 GS    Blackforest Motorsports          2:06.110   0.089   1.053  93.347
 6.  79 GS    Kinetic Motorsports              2:06.208   0.098   1.151  93.275
 7.  42 GS    TRG                              2:06.294   0.086   1.237  93.211
 8.  38 GS    BGB Motorsports                  2:06.416   0.122   1.359  93.121
 9.  40 GS    TRG                              2:06.420   0.004   1.363  93.118
10.  39 GS    TRG                              2:06.536   0.116   1.479  93.033
11.  59 GS    Rehagen Racing                   2:06.603   0.067   1.546  92.984
12.  97 GS    Turner Motorsport                2:06.665   0.062   1.608  92.938
13.  99 GS    Automatic Racing                 2:06.753   0.088   1.696  92.874
14.  41 GS    TRG                              2:06.829   0.076   1.772  92.818
15.  90 GS    Automatic Racing                 2:06.889   0.060   1.832  92.774
16.  83 GS    BGB Motorsports                  2:07.043   0.154   1.986  92.662
17.  37 GS    JBS Racing                       2:07.284   0.241   2.227  92.486
18. 137 GS    JBS Motorsports                  2:07.328   0.044   2.271  92.454
19.  54 GS    Hyper Sport                      2:07.342   0.014   2.285  92.444
20.  28 GS    Fall-Line Motorsports            2:07.359   0.017   2.302  92.432
21.  88 GS    Ranger Sports Racing             2:07.413   0.054   2.356  92.392
22.  46 GS    Fall-Line Motorsports            2:07.422   0.009   2.365  92.386
23.  80 GS    Kinetic Motorsports              2:07.735   0.313   2.678  92.160
24.   4 GS    Blackforest Motorsports          2:08.077   0.342   3.020  91.913
25.  96 GS    Turner Motorsport                2:08.273   0.196   3.216  91.773
26.   2 GS    Blackforest Motorsports          2:08.392   0.119   3.335  91.688
27.  52 GS    Rehagen Racing                   2:08.401   0.009   3.344  91.682
28.  87 GS    Marcus Motorsports               2:08.465   0.064   3.408  91.636
29.  20 GS    Horsepower/Wright Motorsports    2:08.468   0.003   3.411  91.634
30.   3 GS    Blackforest Motorsports          2:09.568   1.100   4.511  90.856
31.  72 GS    BGB Motorsports                  2:10.169   0.601   5.112  90.436
32.  45 GS    Michael Baughman Racing          2:10.494   0.325   5.437  90.211
33.  78 GS    Kinetic Motorsports               No Time

Write a comment
Show comments
About this article
Series GRANDAM